envialia.com alexa rank chart, envialia.com alexa rank daily changes

envialia.com alexa rank chart, envialia.com alexa rank daily changes

envialia.com
Actual rank:
193 103

RANK HISTORY

Date Rank Diff
2018/06/20 193 103 -382 132
2018/06/17 575 235 +405 804
2018/06/16 169 431 -67 739
2018/06/15 237 170 -65 725
2018/06/14 302 895 +15 730
2018/06/13 287 165 -202 356
2018/06/11 489 521 +192 647
2018/06/10 296 874 +106 662
2018/06/09 190 212 -522 574
2018/06/08 712 786 +459 216
2018/06/07 253 570 -92
2018/06/06 253 662 -79 288
2018/06/03 332 950 +156 984
2018/06/02 175 966 -137 164
2018/06/01 313 130 -50 511
2018/05/31 363 641 -321 039
2018/05/30 684 680 +302 369
2018/05/28 382 311 +175 600
2018/05/27 206 711 -30 167
2018/05/26 236 878 +85 699
2018/05/25 151 179 -110 147
2018/05/24 261 326 +71 199
2018/05/23 190 127 -142 607
2018/05/22 332 734 +44 786
2018/05/20 287 948 +78 614
2018/05/19 209 334 -35 597
2018/05/17 244 931 -130 225
2018/05/16 375 156 +180 700
2018/05/13 194 456 -34 372
2018/05/12 228 828 +64 314
2018/05/11 164 514 +41 090
2018/05/10 123 424 +33 052
2018/05/09 90 372 -323 631
2018/05/08 414 003 +182 399
2018/05/07 231 604 +108 181
2018/05/06 123 423 +32 405
2018/05/05 91 018 +7 945
2018/05/04 83 073 -116 567
2018/05/03 199 640 +41 937
2018/05/02 157 703 -388 709
2018/04/30 546 412 +364 353
2018/04/29 182 059 +100 999
2018/04/28 81 060 -247 844
2018/04/27 328 904 +190 898
2018/04/26 138 006 -45 217
2018/04/25 183 223 -145 681
2018/04/23 328 904 +174 738
2018/04/22 154 166 -22 305
2018/04/21 176 471

WIDGET FOR YOUR SITE

DOMAINS WITH THE NEAREST RANK

Domain Rank
audiokinetic.com 193 098
agpd.es 193 099
alcanzia.es 193 100
e-leclerc.es 193 101
emes.es 193 102
envialia.com 193 103
forocupon.com 193 104
fotoboom.com 193 105
gamesacorp.com 193 106
malagaempleo.com 193 107
provis.es 193 108

DOMAINS WITH THE NEAREST RANK BY TLD .com

Domain Rank
unfavinator.com 193 094
hargacampur.com 193 095
therewardboss.com 193 096
smashingapps.com 193 097
audiokinetic.com 193 098
envialia.com 193 103
forocupon.com 193 104
fotoboom.com 193 105
gamesacorp.com 193 106
malagaempleo.com 193 107
spanishred.com 193 110